createdAt,value
2022-12-06T00:00:44.676Z,42.86
2022-12-06T00:05:46.738Z,43.80
2022-12-06T00:10:48.807Z,46.63
2022-12-06T00:15:50.878Z,45.26
2022-12-06T00:20:52.911Z,45.84
2022-12-06T00:25:54.923Z,44.30
2022-12-06T00:31:01.485Z,44.32
2022-12-06T00:36:10.682Z,41.83
2022-12-06T00:41:24.141Z,41.20
2022-12-06T00:46:31.419Z,41.03
2022-12-06T00:51:34.627Z,41.72
2022-12-06T00:56:37.344Z,41.24
2022-12-06T01:01:39.459Z,42.42
2022-12-06T01:06:41.459Z,41.96
2022-12-06T01:11:43.369Z,41.17
2022-12-06T01:16:45.337Z,41.20
2022-12-06T01:21:48.983Z,42.05
2022-12-06T01:26:50.911Z,40.87
2022-12-06T01:31:52.769Z,40.33
2022-12-06T01:36:54.727Z,40.37
2022-12-06T01:41:56.658Z,41.98
2022-12-06T01:46:58.586Z,41.96
2022-12-06T01:52:06.061Z,40.24
2022-12-06T01:57:13.390Z,40.08
2022-12-06T02:02:15.989Z,42.87
2022-12-06T02:07:20.593Z,42.75
2022-12-06T02:12:22.553Z,43.69
2022-12-06T02:17:50.084Z,43.03
2022-12-06T02:22:58.020Z,42.97
2022-12-06T02:28:22.495Z,44.91
2022-12-06T02:33:48.716Z,43.94
2022-12-06T02:39:22.124Z,42.43
2022-12-06T02:44:35.268Z,42.45
2022-12-06T02:49:44.792Z,40.88
2022-12-06T02:54:48.550Z,44.88
2022-12-06T02:59:53.015Z,43.17
2022-12-06T03:05:23.771Z,42.92
2022-12-06T03:10:38.503Z,46.71
2022-12-06T03:16:08.750Z,43.70
2022-12-06T03:21:19.857Z,43.07
2022-12-06T03:26:27.605Z,45.76
2022-12-06T03:31:33.963Z,44.42
2022-12-06T03:36:37.637Z,44.70
2022-12-06T03:41:59.962Z,43.44
2022-12-06T03:47:16.270Z,44.38
2022-12-06T03:52:18.371Z,44.35
2022-12-06T03:57:20.318Z,44.96
2022-12-06T04:02:22.715Z,45.09
2022-12-06T04:07:24.589Z,46.09
2022-12-06T04:12:49.472Z,45.65
2022-12-06T04:18:10.087Z,45.48
2022-12-06T04:23:12.036Z,44.35
2022-12-06T04:28:32.536Z,44.91
2022-12-06T04:33:52.919Z,45.60
2022-12-06T04:38:54.839Z,45.18
2022-12-06T04:43:56.694Z,43.19
2022-12-06T04:48:58.983Z,44.40
2022-12-06T04:54:01.167Z,45.37
2022-12-06T04:59:03.354Z,45.23
2022-12-06T05:04:07.366Z,45.51
2022-12-06T05:09:09.494Z,44.36
2022-12-06T05:14:11.587Z,44.50
2022-12-06T05:19:14.467Z,45.05
2022-12-06T05:24:16.372Z,45.15
2022-12-06T05:29:20.194Z,44.36
2022-12-06T05:34:22.468Z,44.32
2022-12-06T05:39:24.615Z,44.98
2022-12-06T05:44:26.570Z,44.53
2022-12-06T05:49:28.728Z,42.57
2022-12-06T05:54:30.716Z,42.51
2022-12-06T05:59:33.617Z,41.37
2022-12-06T06:04:35.680Z,41.65
2022-12-06T06:09:37.648Z,41.23
2022-12-06T06:14:40.002Z,40.33
2022-12-06T06:19:41.982Z,40.28
2022-12-06T06:24:43.954Z,40.21
2022-12-06T06:29:45.890Z,40.49
2022-12-06T06:34:47.886Z,40.22
2022-12-06T06:39:50.171Z,42.69
2022-12-06T06:44:54.625Z,41.71
2022-12-06T06:49:56.597Z,40.58
2022-12-06T06:54:59.150Z,40.39
2022-12-06T07:00:01.348Z,39.85
2022-12-06T07:05:03.857Z,39.83
2022-12-06T07:10:06.656Z,40.71
2022-12-06T07:15:09.237Z,41.81
2022-12-06T07:20:11.603Z,43.39
2022-12-06T07:25:14.002Z,41.24
2022-12-06T07:30:17.386Z,43.39
2022-12-06T07:35:20.906Z,42.71
2022-12-06T07:40:41.321Z,42.88
2022-12-06T07:45:44.883Z,41.83
2022-12-06T07:50:47.464Z,46.72
2022-12-06T07:55:49.462Z,44.61
2022-12-06T08:00:51.538Z,45.00
2022-12-06T08:05:55.918Z,43.73
2022-12-06T08:11:02.995Z,43.82
2022-12-06T08:16:13.227Z,42.77
2022-12-06T08:21:16.655Z,42.20
2022-12-06T08:26:19.001Z,41.03
2022-12-06T08:31:23.598Z,43.63
2022-12-06T08:36:25.670Z,42.05
2022-12-06T08:41:46.122Z,41.02
2022-12-06T08:46:48.880Z,41.81
2022-12-06T08:51:51.826Z,43.07
2022-12-06T08:56:54.504Z,43.26
2022-12-06T09:01:56.629Z,43.23
2022-12-06T09:06:58.763Z,42.38
2022-12-06T09:12:00.808Z,42.99
2022-12-06T09:17:02.833Z,50.57
2022-12-06T09:22:04.815Z,58.75
2022-12-06T09:27:06.806Z,57.09
2022-12-06T09:32:08.805Z,59.44
2022-12-06T09:37:13.197Z,62.82
2022-12-06T09:42:27.354Z,60.02
2022-12-06T09:47:40.302Z,60.90
2022-12-06T09:53:00.612Z,57.74
2022-12-06T09:58:11.096Z,55.08
2022-12-06T10:03:43.498Z,54.87
2022-12-06T10:09:00.112Z,50.38
2022-12-06T10:14:27.026Z,48.47
2022-12-06T10:19:47.716Z,46.52
2022-12-06T10:25:07.374Z,49.50
2022-12-06T10:30:14.193Z,58.28
2022-12-06T10:35:39.885Z,58.56
2022-12-06T10:41:00.478Z,62.08
2022-12-06T10:46:27.199Z,57.78
2022-12-06T10:51:41.387Z,53.65
2022-12-06T10:56:46.101Z,54.92
2022-12-06T11:01:50.500Z,60.14
2022-12-06T11:06:58.712Z,64.56
2022-12-06T11:12:01.227Z,63.71
2022-12-06T11:17:16.948Z,62.12
2022-12-06T11:22:39.583Z,61.94
2022-12-06T11:28:11.557Z,61.11
2022-12-06T11:33:13.844Z,61.89
2022-12-06T11:38:17.574Z,60.93
2022-12-06T11:43:27.278Z,57.67
2022-12-06T11:48:33.486Z,59.38
2022-12-06T11:53:56.350Z,59.91
2022-12-06T11:59:07.876Z,55.52
2022-12-06T12:04:34.262Z,54.80
2022-12-06T12:09:46.766Z,57.86
2022-12-06T12:14:58.585Z,59.72
2022-12-06T12:20:04.065Z,61.72
2022-12-06T12:25:29.521Z,60.18
2022-12-06T12:30:36.713Z,60.84
2022-12-06T12:35:41.845Z,57.69
2022-12-06T12:40:51.175Z,57.03
2022-12-06T12:46:10.924Z,56.33
2022-12-06T12:51:33.610Z,55.69
2022-12-06T12:56:37.407Z,52.50
2022-12-06T13:01:46.890Z,56.68
2022-12-06T13:07:01.852Z,57.71
2022-12-06T13:12:15.159Z,55.69
2022-12-06T13:17:18.935Z,52.79
2022-12-06T13:22:27.086Z,50.11
2022-12-06T13:27:34.670Z,52.11
2022-12-06T13:32:41.401Z,44.84
2022-12-06T13:37:53.801Z,46.22
2022-12-06T13:42:55.734Z,51.22
2022-12-06T13:47:57.725Z,45.93
2022-12-06T13:53:03.335Z,45.89
2022-12-06T13:58:05.193Z,40.79
2022-12-06T14:03:27.330Z,42.51
2022-12-06T14:08:53.645Z,49.56
2022-12-06T14:13:55.529Z,48.39
2022-12-06T14:18:57.773Z,51.58
2022-12-06T14:23:59.937Z,52.12
2022-12-06T14:29:02.419Z,47.74
2022-12-06T14:34:04.966Z,50.56
2022-12-06T14:39:19.135Z,52.87
2022-12-06T14:44:27.011Z,53.14
2022-12-06T14:49:48.533Z,48.76
2022-12-06T14:54:52.211Z,48.95
2022-12-06T15:00:26.965Z,46.25
2022-12-06T15:05:36.074Z,44.04
2022-12-06T15:10:38.093Z,43.19
2022-12-06T15:15:44.101Z,41.28
2022-12-06T15:20:46.885Z,40.18
2022-12-06T15:25:48.948Z,40.06
2022-12-06T15:30:51.547Z,40.22
2022-12-06T15:35:54.675Z,40.77
2022-12-06T15:40:57.316Z,39.63
2022-12-06T15:46:01.879Z,40.07
2022-12-06T15:51:09.316Z,38.74
2022-12-06T15:56:18.424Z,40.55
2022-12-06T16:01:23.849Z,41.10
2022-12-06T16:06:27.453Z,40.69
2022-12-06T16:11:29.563Z,40.44
2022-12-06T16:16:32.533Z,41.23
2022-12-06T16:21:37.364Z,41.16
2022-12-06T16:26:45.031Z,40.89
2022-12-06T16:31:48.084Z,40.26
2022-12-06T16:37:03.612Z,41.79
2022-12-06T16:42:05.867Z,42.12
2022-12-06T16:47:08.105Z,41.14
2022-12-06T16:52:10.174Z,41.40
2022-12-06T16:57:13.324Z,40.99
2022-12-06T17:02:29.247Z,40.50
2022-12-06T17:07:31.630Z,39.68
2022-12-06T17:12:33.684Z,41.10
2022-12-06T17:17:35.703Z,40.14
2022-12-06T17:22:37.928Z,40.19
2022-12-06T17:27:40.263Z,41.86
2022-12-06T17:32:42.371Z,44.11
2022-12-06T17:37:44.365Z,45.30
2022-12-06T17:43:02.183Z,44.36
2022-12-06T17:48:04.400Z,43.95
2022-12-06T17:53:06.611Z,44.38
2022-12-06T17:58:08.601Z,46.05
2022-12-06T18:03:10.605Z,45.83
2022-12-06T18:08:12.743Z,47.93
2022-12-06T18:13:14.876Z,46.74
2022-12-06T18:18:17.010Z,45.55
2022-12-06T18:23:18.949Z,47.35
2022-12-06T18:28:20.900Z,46.90
2022-12-06T18:33:27.902Z,49.11
2022-12-06T18:38:32.251Z,50.19
2022-12-06T18:43:35.333Z,48.60
2022-12-06T18:48:40.049Z,47.56
2022-12-06T18:53:42.915Z,46.46
2022-12-06T18:58:45.112Z,44.89
2022-12-06T19:03:47.802Z,44.97
2022-12-06T19:08:53.851Z,44.09
2022-12-06T19:13:58.276Z,47.01
2022-12-06T19:19:01.734Z,46.69
2022-12-06T19:24:04.734Z,46.97
2022-12-06T19:29:06.817Z,45.70
2022-12-06T19:34:17.811Z,47.31
2022-12-06T19:39:21.015Z,45.92
2022-12-06T19:44:24.120Z,46.80
2022-12-06T19:49:27.592Z,45.32
2022-12-06T19:54:32.635Z,43.57
2022-12-06T19:59:36.518Z,43.76
2022-12-06T20:04:41.361Z,43.44
2022-12-06T20:09:43.290Z,44.93
2022-12-06T20:14:47.571Z,43.14
2022-12-06T20:19:49.871Z,43.13
2022-12-06T20:24:51.848Z,44.27
2022-12-06T20:29:53.824Z,42.47
2022-12-06T20:34:55.903Z,44.96
2022-12-06T20:39:58.073Z,46.78
2022-12-06T20:45:00.332Z,44.73
2022-12-06T20:50:02.674Z,45.71
2022-12-06T20:55:05.209Z,45.50
2022-12-06T21:00:08.217Z,44.40
2022-12-06T21:05:10.311Z,45.73
2022-12-06T21:10:12.275Z,46.15
2022-12-06T21:15:14.267Z,44.15
2022-12-06T21:20:16.282Z,43.88
2022-12-06T21:25:18.178Z,43.26
2022-12-06T21:30:20.194Z,42.40
2022-12-06T21:35:22.572Z,42.93
2022-12-06T21:40:24.502Z,42.38
2022-12-06T21:45:26.439Z,46.25
2022-12-06T21:50:28.389Z,44.24
2022-12-06T21:55:30.446Z,43.93
2022-12-06T22:00:32.426Z,43.02
2022-12-06T22:05:39.822Z,43.23
2022-12-06T22:10:41.977Z,47.79
2022-12-06T22:15:43.971Z,47.53
2022-12-06T22:20:56.440Z,46.05
2022-12-06T22:25:59.771Z,47.92
2022-12-06T22:31:11.644Z,47.60
2022-12-06T22:36:15.035Z,46.63
2022-12-06T22:41:17.945Z,46.74
2022-12-06T22:46:20.954Z,45.87
2022-12-06T22:51:26.684Z,49.64
2022-12-06T22:56:29.984Z,46.52
2022-12-06T23:01:34.278Z,48.32
2022-12-06T23:06:37.212Z,45.61
2022-12-06T23:11:39.125Z,46.21
2022-12-06T23:16:43.624Z,44.98
2022-12-06T23:21:46.808Z,45.11
2022-12-06T23:26:54.582Z,46.02
2022-12-06T23:31:58.274Z,43.40
2022-12-06T23:37:00.378Z,44.48
2022-12-06T23:42:02.302Z,49.05
2022-12-06T23:47:04.516Z,47.44
2022-12-06T23:52:06.484Z,45.87
2022-12-06T23:57:08.431Z,44.48
